sensor_id;sensor_type;location;lat;lon;timestamp;P1;durP1;ratioP1;P2;durP2;ratioP2
59504;SDS011;45321;53.200;5.814;2022-07-03T00:02:02;5.38;;;3.80;;
59504;SDS011;45321;53.200;5.814;2022-07-03T00:04:28;5.70;;;3.60;;
59504;SDS011;45321;53.200;5.814;2022-07-03T00:06:54;6.03;;;3.85;;
59504;SDS011;45321;53.200;5.814;2022-07-03T00:09:20;6.53;;;3.55;;
59504;SDS011;45321;53.200;5.814;2022-07-03T00:11:46;4.78;;;3.75;;
59504;SDS011;45321;53.200;5.814;2022-07-03T00:14:12;6.18;;;3.80;;
59504;SDS011;45321;53.200;5.814;2022-07-03T00:16:38;5.50;;;3.80;;
59504;SDS011;45321;53.200;5.814;2022-07-03T00:19:03;5.07;;;3.90;;
59504;SDS011;45321;53.200;5.814;2022-07-03T00:21:34;5.40;;;3.95;;
59504;SDS011;45321;53.200;5.814;2022-07-03T00:24:09;7.65;;;4.35;;
59504;SDS011;45321;53.200;5.814;2022-07-03T00:26:50;4.90;;;3.92;;
59504;SDS011;45321;53.200;5.814;2022-07-03T00:29:17;8.23;;;4.40;;
59504;SDS011;45321;53.200;5.814;2022-07-03T00:31:47;9.50;;;5.70;;
59504;SDS011;45321;53.200;5.814;2022-07-03T00:34:15;9.60;;;6.40;;
59504;SDS011;45321;53.200;5.814;2022-07-03T00:36:41;9.02;;;6.82;;
59504;SDS011;45321;53.200;5.814;2022-07-03T00:39:10;8.18;;;6.32;;
59504;SDS011;45321;53.200;5.814;2022-07-03T00:41:36;8.40;;;5.95;;
59504;SDS011;45321;53.200;5.814;2022-07-03T00:44:02;6.72;;;5.78;;
59504;SDS011;45321;53.200;5.814;2022-07-03T00:46:28;8.10;;;5.25;;
59504;SDS011;45321;53.200;5.814;2022-07-03T00:48:56;7.85;;;5.50;;
59504;SDS011;45321;53.200;5.814;2022-07-03T00:51:23;7.45;;;5.25;;
59504;SDS011;45321;53.200;5.814;2022-07-03T00:53:51;5.38;;;4.63;;
59504;SDS011;45321;53.200;5.814;2022-07-03T00:56:23;6.38;;;4.70;;
59504;SDS011;45321;53.200;5.814;2022-07-03T00:58:54;8.10;;;5.07;;
59504;SDS011;45321;53.200;5.814;2022-07-03T01:01:22;6.40;;;4.45;;
59504;SDS011;45321;53.200;5.814;2022-07-03T01:04:03;6.72;;;4.90;;
59504;SDS011;45321;53.200;5.814;2022-07-03T01:06:38;6.32;;;5.72;;
59504;SDS011;45321;53.200;5.814;2022-07-03T01:09:07;7.63;;;6.47;;
59504;SDS011;45321;53.200;5.814;2022-07-03T01:11:37;6.90;;;5.38;;
59504;SDS011;45321;53.200;5.814;2022-07-03T01:16:57;7.57;;;5.60;;
59504;SDS011;45321;53.200;5.814;2022-07-03T01:19:36;7.72;;;5.30;;
59504;SDS011;45321;53.200;5.814;2022-07-03T01:27:22;7.00;;;5.20;;
59504;SDS011;45321;53.200;5.814;2022-07-03T01:30:27;6.20;;;4.07;;
59504;SDS011;45321;53.200;5.814;2022-07-03T01:32:50;7.43;;;5.32;;
59504;SDS011;45321;53.200;5.814;2022-07-03T01:35:22;6.53;;;4.90;;
59504;SDS011;45321;53.200;5.814;2022-07-03T01:37:52;6.47;;;4.03;;
59504;SDS011;45321;53.200;5.814;2022-07-03T01:40:20;5.32;;;4.57;;
59504;SDS011;45321;53.200;5.814;2022-07-03T01:42:48;8.75;;;5.68;;
59504;SDS011;45321;53.200;5.814;2022-07-03T01:45:14;7.45;;;4.50;;
59504;SDS011;45321;53.200;5.814;2022-07-03T01:47:45;5.93;;;4.57;;
59504;SDS011;45321;53.200;5.814;2022-07-03T01:50:13;5.18;;;4.03;;
59504;SDS011;45321;53.200;5.814;2022-07-03T01:52:40;4.28;;;3.40;;
59504;SDS011;45321;53.200;5.814;2022-07-03T01:55:10;4.85;;;3.50;;
59504;SDS011;45321;53.200;5.814;2022-07-03T01:57:43;4.07;;;3.58;;
59504;SDS011;45321;53.200;5.814;2022-07-03T02:00:14;6.20;;;4.00;;
59504;SDS011;45321;53.200;5.814;2022-07-03T02:02:43;13.30;;;6.15;;
59504;SDS011;45321;53.200;5.814;2022-07-03T02:08:03;6.55;;;4.30;;
59504;SDS011;45321;53.200;5.814;2022-07-03T02:10:41;8.48;;;4.43;;
59504;SDS011;45321;53.200;5.814;2022-07-03T02:13:30;4.53;;;3.90;;
59504;SDS011;45321;53.200;5.814;2022-07-03T02:16:00;6.43;;;3.88;;
59504;SDS011;45321;53.200;5.814;2022-07-03T02:18:36;5.22;;;3.70;;
59504;SDS011;45321;53.200;5.814;2022-07-03T02:21:14;4.20;;;3.80;;
59504;SDS011;45321;53.200;5.814;2022-07-03T02:23:47;5.95;;;3.67;;
59504;SDS011;45321;53.200;5.814;2022-07-03T02:26:21;4.32;;;3.35;;
59504;SDS011;45321;53.200;5.814;2022-07-03T02:29:01;4.45;;;3.60;;
59504;SDS011;45321;53.200;5.814;2022-07-03T02:31:32;4.78;;;3.75;;
59504;SDS011;45321;53.200;5.814;2022-07-03T02:34:08;6.28;;;3.97;;
59504;SDS011;45321;53.200;5.814;2022-07-03T02:36:47;7.20;;;4.85;;
59504;SDS011;45321;53.200;5.814;2022-07-03T02:39:23;21.60;;;15.05;;
59504;SDS011;45321;53.200;5.814;2022-07-03T02:41:57;22.13;;;17.05;;
59504;SDS011;45321;53.200;5.814;2022-07-03T02:44:28;20.77;;;16.05;;
59504;SDS011;45321;53.200;5.814;2022-07-03T02:54:57;6.10;;;4.68;;
59504;SDS011;45321;53.200;5.814;2022-07-03T02:57:34;6.18;;;4.75;;
59504;SDS011;45321;53.200;5.814;2022-07-03T03:00:06;6.30;;;4.50;;
59504;SDS011;45321;53.200;5.814;2022-07-03T03:05:16;5.95;;;5.15;;
59504;SDS011;45321;53.200;5.814;2022-07-03T03:10:46;7.18;;;5.78;;
59504;SDS011;45321;53.200;5.814;2022-07-03T03:13:16;8.02;;;5.82;;
59504;SDS011;45321;53.200;5.814;2022-07-03T03:18:36;6.55;;;5.93;;
59504;SDS011;45321;53.200;5.814;2022-07-03T03:21:04;6.78;;;5.82;;
59504;SDS011;45321;53.200;5.814;2022-07-03T03:26:11;6.68;;;6.03;;
59504;SDS011;45321;53.200;5.814;2022-07-03T03:28:38;6.47;;;5.88;;
59504;SDS011;45321;53.200;5.814;2022-07-03T03:31:05;7.03;;;6.32;;
59504;SDS011;45321;53.200;5.814;2022-07-03T03:33:36;9.50;;;6.50;;
59504;SDS011;45321;53.200;5.814;2022-07-03T03:36:09;9.25;;;8.35;;
59504;SDS011;45321;53.200;5.814;2022-07-03T03:38:36;10.70;;;7.55;;
59504;SDS011;45321;53.200;5.814;2022-07-03T03:41:03;6.80;;;6.07;;
59504;SDS011;45321;53.200;5.814;2022-07-03T03:43:29;9.82;;;6.10;;
59504;SDS011;45321;53.200;5.814;2022-07-03T03:45:56;8.55;;;6.80;;
59504;SDS011;45321;53.200;5.814;2022-07-03T03:48:23;7.80;;;6.63;;
59504;SDS011;45321;53.200;5.814;2022-07-03T03:50:50;10.15;;;7.30;;
59504;SDS011;45321;53.200;5.814;2022-07-03T03:53:16;10.95;;;7.38;;
59504;SDS011;45321;53.200;5.814;2022-07-03T03:55:53;7.47;;;6.32;;
59504;SDS011;45321;53.200;5.814;2022-07-03T03:58:40;8.73;;;7.07;;
59504;SDS011;45321;53.200;5.814;2022-07-03T04:01:07;8.93;;;6.35;;
59504;SDS011;45321;53.200;5.814;2022-07-03T04:03:34;7.38;;;6.22;;
59504;SDS011;45321;53.200;5.814;2022-07-03T04:06:01;7.38;;;6.28;;
59504;SDS011;45321;53.200;5.814;2022-07-03T04:08:27;6.95;;;6.25;;
59504;SDS011;45321;53.200;5.814;2022-07-03T04:10:53;6.72;;;6.03;;
59504;SDS011;45321;53.200;5.814;2022-07-03T04:13:20;7.95;;;5.57;;
59504;SDS011;45321;53.200;5.814;2022-07-03T04:15:46;6.00;;;5.28;;
59504;SDS011;45321;53.200;5.814;2022-07-03T04:18:16;7.40;;;5.75;;
59504;SDS011;45321;53.200;5.814;2022-07-03T04:20:41;5.93;;;5.13;;
59504;SDS011;45321;53.200;5.814;2022-07-03T04:23:07;6.65;;;5.55;;
59504;SDS011;45321;53.200;5.814;2022-07-03T04:25:33;6.47;;;5.60;;
59504;SDS011;45321;53.200;5.814;2022-07-03T04:27:59;6.43;;;4.70;;
59504;SDS011;45321;53.200;5.814;2022-07-03T04:30:25;6.78;;;5.15;;
59504;SDS011;45321;53.200;5.814;2022-07-03T04:32:51;6.97;;;5.15;;
59504;SDS011;45321;53.200;5.814;2022-07-03T04:35:17;6.93;;;5.15;;
59504;SDS011;45321;53.200;5.814;2022-07-03T04:37:42;7.05;;;4.88;;
59504;SDS011;45321;53.200;5.814;2022-07-03T04:40:09;6.40;;;4.75;;
59504;SDS011;45321;53.200;5.814;2022-07-03T04:42:35;5.40;;;4.90;;
59504;SDS011;45321;53.200;5.814;2022-07-03T04:45:01;5.40;;;4.90;;
59504;SDS011;45321;53.200;5.814;2022-07-03T04:47:28;7.00;;;4.68;;
59504;SDS011;45321;53.200;5.814;2022-07-03T04:49:53;5.57;;;4.88;;
59504;SDS011;45321;53.200;5.814;2022-07-03T04:52:19;8.30;;;5.78;;
59504;SDS011;45321;53.200;5.814;2022-07-03T04:54:45;5.10;;;4.60;;
59504;SDS011;45321;53.200;5.814;2022-07-03T04:57:10;5.60;;;4.32;;
59504;SDS011;45321;53.200;5.814;2022-07-03T04:59:36;5.00;;;4.30;;
59504;SDS011;45321;53.200;5.814;2022-07-03T05:02:02;4.82;;;4.32;;
59504;SDS011;45321;53.200;5.814;2022-07-03T05:04:28;6.78;;;4.30;;
59504;SDS011;45321;53.200;5.814;2022-07-03T05:06:54;6.57;;;3.92;;
59504;SDS011;45321;53.200;5.814;2022-07-03T05:09:20;6.10;;;3.92;;
59504;SDS011;45321;53.200;5.814;2022-07-03T05:11:45;4.65;;;4.25;;
59504;SDS011;45321;53.200;5.814;2022-07-03T05:14:11;6.05;;;4.00;;
59504;SDS011;45321;53.200;5.814;2022-07-03T05:16:37;4.60;;;3.60;;
59504;SDS011;45321;53.200;5.814;2022-07-03T05:19:03;4.70;;;4.22;;
59504;SDS011;45321;53.200;5.814;2022-07-03T05:21:28;4.32;;;3.22;;
59504;SDS011;45321;53.200;5.814;2022-07-03T05:23:54;5.53;;;3.45;;
59504;SDS011;45321;53.200;5.814;2022-07-03T05:26:20;3.40;;;3.10;;
59504;SDS011;45321;53.200;5.814;2022-07-03T05:28:46;3.58;;;2.92;;
59504;SDS011;45321;53.200;5.814;2022-07-03T05:31:11;7.28;;;3.70;;
59504;SDS011;45321;53.200;5.814;2022-07-03T05:33:37;3.72;;;3.20;;
59504;SDS011;45321;53.200;5.814;2022-07-03T05:36:03;5.18;;;3.28;;
59504;SDS011;45321;53.200;5.814;2022-07-03T05:38:30;3.80;;;3.28;;
59504;SDS011;45321;53.200;5.814;2022-07-03T05:41:15;5.10;;;3.05;;
59504;SDS011;45321;53.200;5.814;2022-07-03T05:43:41;7.40;;;3.42;;
59504;SDS011;45321;53.200;5.814;2022-07-03T05:46:07;6.80;;;3.20;;
59504;SDS011;45321;53.200;5.814;2022-07-03T05:48:33;14.48;;;3.70;;
59504;SDS011;45321;53.200;5.814;2022-07-03T05:50:59;5.35;;;3.20;;
59504;SDS011;45321;53.200;5.814;2022-07-03T05:53:24;4.35;;;3.40;;
59504;SDS011;45321;53.200;5.814;2022-07-03T05:55:50;4.40;;;3.17;;
59504;SDS011;45321;53.200;5.814;2022-07-03T05:58:16;4.53;;;3.08;;
59504;SDS011;45321;53.200;5.814;2022-07-03T06:00:42;5.00;;;2.70;;
59504;SDS011;45321;53.200;5.814;2022-07-03T06:03:08;3.00;;;2.50;;
59504;SDS011;45321;53.200;5.814;2022-07-03T06:05:34;5.78;;;2.75;;
59504;SDS011;45321;53.200;5.814;2022-07-03T06:08:00;4.15;;;2.45;;
59504;SDS011;45321;53.200;5.814;2022-07-03T06:10:26;4.50;;;2.42;;
59504;SDS011;45321;53.200;5.814;2022-07-03T06:12:53;4.32;;;2.10;;
59504;SDS011;45321;53.200;5.814;2022-07-03T06:15:20;4.00;;;2.60;;
59504;SDS011;45321;53.200;5.814;2022-07-03T06:17:46;5.93;;;2.17;;
59504;SDS011;45321;53.200;5.814;2022-07-03T06:20:12;5.53;;;1.60;;
59504;SDS011;45321;53.200;5.814;2022-07-03T06:22:38;3.55;;;1.60;;
59504;SDS011;45321;53.200;5.814;2022-07-03T06:25:05;4.63;;;1.50;;
59504;SDS011;45321;53.200;5.814;2022-07-03T06:27:31;3.83;;;1.70;;
59504;SDS011;45321;53.200;5.814;2022-07-03T06:29:57;5.18;;;1.77;;
59504;SDS011;45321;53.200;5.814;2022-07-03T06:32:23;3.53;;;1.48;;
59504;SDS011;45321;53.200;5.814;2022-07-03T06:34:49;4.05;;;1.38;;
59504;SDS011;45321;53.200;5.814;2022-07-03T06:37:14;4.28;;;1.70;;
59504;SDS011;45321;53.200;5.814;2022-07-03T06:39:40;4.20;;;1.70;;
59504;SDS011;45321;53.200;5.814;2022-07-03T06:42:06;4.03;;;1.77;;
59504;SDS011;45321;53.200;5.814;2022-07-03T06:44:32;3.42;;;1.50;;
59504;SDS011;45321;53.200;5.814;2022-07-03T06:46:58;5.10;;;1.50;;
59504;SDS011;45321;53.200;5.814;2022-07-03T06:49:28;2.97;;;1.30;;
59504;SDS011;45321;53.200;5.814;2022-07-03T06:51:57;2.65;;;1.15;;
59504;SDS011;45321;53.200;5.814;2022-07-03T06:54:23;3.58;;;1.10;;
59504;SDS011;45321;53.200;5.814;2022-07-03T06:56:49;3.67;;;1.00;;
59504;SDS011;45321;53.200;5.814;2022-07-03T06:59:15;3.60;;;0.93;;
59504;SDS011;45321;53.200;5.814;2022-07-03T07:01:41;4.65;;;0.88;;
59504;SDS011;45321;53.200;5.814;2022-07-03T07:04:07;3.88;;;1.15;;
59504;SDS011;45321;53.200;5.814;2022-07-03T07:06:32;2.42;;;0.88;;
59504;SDS011;45321;53.200;5.814;2022-07-03T07:08:58;5.45;;;1.08;;
59504;SDS011;45321;53.200;5.814;2022-07-03T07:11:24;3.85;;;1.42;;
59504;SDS011;45321;53.200;5.814;2022-07-03T07:13:49;2.28;;;0.93;;
59504;SDS011;45321;53.200;5.814;2022-07-03T07:16:15;4.13;;;0.88;;
59504;SDS011;45321;53.200;5.814;2022-07-03T07:18:41;2.90;;;0.90;;
59504;SDS011;45321;53.200;5.814;2022-07-03T07:21:08;2.95;;;0.80;;
59504;SDS011;45321;53.200;5.814;2022-07-03T07:23:35;3.30;;;0.70;;
59504;SDS011;45321;53.200;5.814;2022-07-03T07:26:01;3.38;;;0.70;;
59504;SDS011;45321;53.200;5.814;2022-07-03T07:28:28;2.67;;;0.68;;
59504;SDS011;45321;53.200;5.814;2022-07-03T07:30:55;2.85;;;1.13;;
59504;SDS011;45321;53.200;5.814;2022-07-03T07:33:23;4.68;;;0.80;;
59504;SDS011;45321;53.200;5.814;2022-07-03T07:35:49;2.22;;;0.75;;
59504;SDS011;45321;53.200;5.814;2022-07-03T07:38:15;3.22;;;0.68;;
59504;SDS011;45321;53.200;5.814;2022-07-03T07:40:41;2.95;;;0.63;;
59504;SDS011;45321;53.200;5.814;2022-07-03T07:43:06;3.47;;;0.73;;
59504;SDS011;45321;53.200;5.814;2022-07-03T07:45:32;3.35;;;0.50;;
59504;SDS011;45321;53.200;5.814;2022-07-03T07:47:58;5.68;;;0.68;;
59504;SDS011;45321;53.200;5.814;2022-07-03T07:50:24;4.70;;;0.90;;
59504;SDS011;45321;53.200;5.814;2022-07-03T07:52:49;2.88;;;0.75;;
59504;SDS011;45321;53.200;5.814;2022-07-03T07:55:15;5.15;;;1.20;;
59504;SDS011;45321;53.200;5.814;2022-07-03T07:57:41;1.95;;;0.65;;
59504;SDS011;45321;53.200;5.814;2022-07-03T08:00:08;3.47;;;0.50;;
59504;SDS011;45321;53.200;5.814;2022-07-03T08:02:35;4.45;;;0.88;;
59504;SDS011;45321;53.200;5.814;2022-07-03T08:05:36;5.18;;;0.95;;
59504;SDS011;45321;53.200;5.814;2022-07-03T08:10:37;3.38;;;1.25;;
59504;SDS011;45321;53.200;5.814;2022-07-03T08:13:04;3.70;;;0.80;;
59504;SDS011;45321;53.200;5.814;2022-07-03T08:15:30;2.58;;;0.80;;
59504;SDS011;45321;53.200;5.814;2022-07-03T08:17:56;5.45;;;1.20;;
59504;SDS011;45321;53.200;5.814;2022-07-03T08:20:22;8.35;;;1.35;;
59504;SDS011;45321;53.200;5.814;2022-07-03T08:22:47;6.63;;;1.52;;
59504;SDS011;45321;53.200;5.814;2022-07-03T08:25:13;5.50;;;1.40;;
59504;SDS011;45321;53.200;5.814;2022-07-03T08:27:39;7.97;;;1.30;;
59504;SDS011;45321;53.200;5.814;2022-07-03T08:30:05;7.78;;;1.80;;
59504;SDS011;45321;53.200;5.814;2022-07-03T08:32:31;8.27;;;1.30;;
59504;SDS011;45321;53.200;5.814;2022-07-03T08:34:57;7.85;;;1.50;;
59504;SDS011;45321;53.200;5.814;2022-07-03T08:37:22;9.68;;;1.15;;
59504;SDS011;45321;53.200;5.814;2022-07-03T08:39:48;4.57;;;1.20;;
59504;SDS011;45321;53.200;5.814;2022-07-03T08:42:14;6.03;;;1.17;;
59504;SDS011;45321;53.200;5.814;2022-07-03T08:44:42;4.75;;;0.90;;
59504;SDS011;45321;53.200;5.814;2022-07-03T08:47:08;3.78;;;1.00;;
59504;SDS011;45321;53.200;5.814;2022-07-03T08:49:37;5.40;;;1.45;;
59504;SDS011;45321;53.200;5.814;2022-07-03T08:52:03;7.05;;;1.38;;
59504;SDS011;45321;53.200;5.814;2022-07-03T08:54:32;3.13;;;1.02;;
59504;SDS011;45321;53.200;5.814;2022-07-03T08:57:00;4.70;;;1.00;;
59504;SDS011;45321;53.200;5.814;2022-07-03T08:59:28;6.95;;;0.80;;
59504;SDS011;45321;53.200;5.814;2022-07-03T09:02:02;6.20;;;1.40;;
59504;SDS011;45321;53.200;5.814;2022-07-03T09:04:30;3.47;;;0.90;;
59504;SDS011;45321;53.200;5.814;2022-07-03T09:06:59;5.47;;;1.42;;
59504;SDS011;45321;53.200;5.814;2022-07-03T09:09:25;4.95;;;1.33;;
59504;SDS011;45321;53.200;5.814;2022-07-03T09:11:51;7.70;;;1.40;;
59504;SDS011;45321;53.200;5.814;2022-07-03T09:14:17;4.18;;;1.40;;
59504;SDS011;45321;53.200;5.814;2022-07-03T09:16:44;7.10;;;1.80;;
59504;SDS011;45321;53.200;5.814;2022-07-03T09:19:10;5.85;;;1.73;;
59504;SDS011;45321;53.200;5.814;2022-07-03T09:21:36;7.70;;;1.80;;
59504;SDS011;45321;53.200;5.814;2022-07-03T09:24:06;4.35;;;1.35;;
59504;SDS011;45321;53.200;5.814;2022-07-03T09:26:33;5.50;;;1.40;;
59504;SDS011;45321;53.200;5.814;2022-07-03T09:29:00;7.07;;;1.45;;
59504;SDS011;45321;53.200;5.814;2022-07-03T09:31:27;7.65;;;1.60;;
59504;SDS011;45321;53.200;5.814;2022-07-03T09:33:58;7.93;;;1.30;;
59504;SDS011;45321;53.200;5.814;2022-07-03T09:41:57;4.97;;;1.42;;
59504;SDS011;45321;53.200;5.814;2022-07-03T09:44:31;5.82;;;1.20;;
59504;SDS011;45321;53.200;5.814;2022-07-03T09:50:01;8.13;;;2.00;;
59504;SDS011;45321;53.200;5.814;2022-07-03T09:52:37;11.55;;;1.90;;
59504;SDS011;45321;53.200;5.814;2022-07-03T09:55:13;8.20;;;1.98;;
59504;SDS011;45321;53.200;5.814;2022-07-03T09:57:41;8.00;;;1.42;;
59504;SDS011;45321;53.200;5.814;2022-07-03T10:00:18;5.93;;;1.67;;
59504;SDS011;45321;53.200;5.814;2022-07-03T10:05:25;7.78;;;1.52;;
59504;SDS011;45321;53.200;5.814;2022-07-03T10:07:56;8.63;;;1.60;;
59504;SDS011;45321;53.200;5.814;2022-07-03T10:10:25;10.73;;;2.15;;
59504;SDS011;45321;53.200;5.814;2022-07-03T10:12:53;7.70;;;1.48;;
59504;SDS011;45321;53.200;5.814;2022-07-03T10:15:20;6.57;;;1.58;;
59504;SDS011;45321;53.200;5.814;2022-07-03T10:17:49;7.68;;;1.40;;
59504;SDS011;45321;53.200;5.814;2022-07-03T10:20:19;6.00;;;1.40;;
59504;SDS011;45321;53.200;5.814;2022-07-03T10:25:17;8.68;;;2.03;;
59504;SDS011;45321;53.200;5.814;2022-07-03T10:27:44;7.18;;;1.45;;
59504;SDS011;45321;53.200;5.814;2022-07-03T10:30:12;7.05;;;1.52;;
59504;SDS011;45321;53.200;5.814;2022-07-03T10:32:43;6.10;;;1.42;;
59504;SDS011;45321;53.200;5.814;2022-07-03T10:35:11;6.28;;;1.40;;
59504;SDS011;45321;53.200;5.814;2022-07-03T10:43:26;3.92;;;1.30;;
59504;SDS011;45321;53.200;5.814;2022-07-03T10:46:14;4.55;;;1.00;;
59504;SDS011;45321;53.200;5.814;2022-07-03T10:51:24;2.22;;;0.73;;
59504;SDS011;45321;53.200;5.814;2022-07-03T10:53:50;4.60;;;1.05;;
59504;SDS011;45321;53.200;5.814;2022-07-03T10:57:03;3.75;;;1.00;;
59504;SDS011;45321;53.200;5.814;2022-07-03T11:07:24;4.03;;;0.90;;
59504;SDS011;45321;53.200;5.814;2022-07-03T11:15:43;5.07;;;1.10;;
59504;SDS011;45321;53.200;5.814;2022-07-03T11:18:12;5.00;;;0.70;;
59504;SDS011;45321;53.200;5.814;2022-07-03T11:25:53;6.10;;;0.90;;
59504;SDS011;45321;53.200;5.814;2022-07-03T11:41:23;2.65;;;0.70;;
59504;SDS011;45321;53.200;5.814;2022-07-03T11:43:50;2.65;;;0.80;;
59504;SDS011;45321;53.200;5.814;2022-07-03T11:46:18;6.30;;;3.55;;
59504;SDS011;45321;53.200;5.814;2022-07-03T11:48:45;4.20;;;1.48;;
59504;SDS011;45321;53.200;5.814;2022-07-03T11:51:11;3.63;;;1.02;;
59504;SDS011;45321;53.200;5.814;2022-07-03T11:53:37;3.15;;;0.70;;
59504;SDS011;45321;53.200;5.814;2022-07-03T11:56:04;2.72;;;0.80;;
59504;SDS011;45321;53.200;5.814;2022-07-03T11:58:45;3.53;;;0.85;;
59504;SDS011;45321;53.200;5.814;2022-07-03T12:03:47;2.90;;;0.70;;
59504;SDS011;45321;53.200;5.814;2022-07-03T12:06:27;4.20;;;0.98;;
59504;SDS011;45321;53.200;5.814;2022-07-03T12:09:13;2.53;;;0.77;;
59504;SDS011;45321;53.200;5.814;2022-07-03T12:14:44;2.70;;;0.70;;
59504;SDS011;45321;53.200;5.814;2022-07-03T12:17:20;1.75;;;0.85;;
59504;SDS011;45321;53.200;5.814;2022-07-03T12:19:54;1.70;;;0.60;;
59504;SDS011;45321;53.200;5.814;2022-07-03T12:27:36;1.13;;;0.70;;
59504;SDS011;45321;53.200;5.814;2022-07-03T12:30:04;1.85;;;0.70;;
59504;SDS011;45321;53.200;5.814;2022-07-03T12:32:31;3.22;;;0.65;;
59504;SDS011;45321;53.200;5.814;2022-07-03T12:34:57;2.30;;;0.55;;
59504;SDS011;45321;53.200;5.814;2022-07-03T12:37:40;2.30;;;0.80;;
59504;SDS011;45321;53.200;5.814;2022-07-03T12:40:07;2.53;;;0.90;;
59504;SDS011;45321;53.200;5.814;2022-07-03T12:42:47;3.35;;;0.82;;
59504;SDS011;45321;53.200;5.814;2022-07-03T12:45:21;2.35;;;0.80;;
59504;SDS011;45321;53.200;5.814;2022-07-03T12:48:02;9.07;;;2.10;;
59504;SDS011;45321;53.200;5.814;2022-07-03T12:53:26;2.65;;;0.60;;
59504;SDS011;45321;53.200;5.814;2022-07-03T12:55:52;2.50;;;0.70;;
59504;SDS011;45321;53.200;5.814;2022-07-03T12:58:22;3.13;;;0.70;;
59504;SDS011;45321;53.200;5.814;2022-07-03T13:01:22;3.83;;;1.17;;
59504;SDS011;45321;53.200;5.814;2022-07-03T13:03:50;2.85;;;0.77;;
59504;SDS011;45321;53.200;5.814;2022-07-03T13:06:16;2.83;;;0.80;;
59504;SDS011;45321;53.200;5.814;2022-07-03T13:09:01;2.38;;;0.70;;
59504;SDS011;45321;53.200;5.814;2022-07-03T13:11:33;4.50;;;0.95;;
59504;SDS011;45321;53.200;5.814;2022-07-03T13:14:12;1.50;;;0.85;;
59504;SDS011;45321;53.200;5.814;2022-07-03T13:16:53;1.85;;;0.70;;
59504;SDS011;45321;53.200;5.814;2022-07-03T13:19:21;1.38;;;0.65;;
59504;SDS011;45321;53.200;5.814;2022-07-03T13:21:49;2.20;;;0.68;;
59504;SDS011;45321;53.200;5.814;2022-07-03T13:24:16;2.67;;;0.68;;
59504;SDS011;45321;53.200;5.814;2022-07-03T13:26:43;1.42;;;0.60;;
59504;SDS011;45321;53.200;5.814;2022-07-03T13:29:09;1.70;;;0.68;;
59504;SDS011;45321;53.200;5.814;2022-07-03T13:31:35;1.73;;;0.70;;
59504;SDS011;45321;53.200;5.814;2022-07-03T13:34:02;2.15;;;0.60;;
59504;SDS011;45321;53.200;5.814;2022-07-03T13:36:29;1.85;;;0.75;;
59504;SDS011;45321;53.200;5.814;2022-07-03T13:38:55;2.58;;;0.60;;
59504;SDS011;45321;53.200;5.814;2022-07-03T13:41:22;3.20;;;0.75;;
59504;SDS011;45321;53.200;5.814;2022-07-03T13:43:49;4.10;;;1.35;;
59504;SDS011;45321;53.200;5.814;2022-07-03T13:46:16;3.17;;;1.73;;
59504;SDS011;45321;53.200;5.814;2022-07-03T13:48:42;2.80;;;1.00;;
59504;SDS011;45321;53.200;5.814;2022-07-03T13:51:08;2.78;;;1.10;;
59504;SDS011;45321;53.200;5.814;2022-07-03T13:53:34;3.28;;;0.88;;
59504;SDS011;45321;53.200;5.814;2022-07-03T13:56:02;2.85;;;0.93;;
59504;SDS011;45321;53.200;5.814;2022-07-03T13:58:28;5.35;;;1.10;;
59504;SDS011;45321;53.200;5.814;2022-07-03T14:00:54;3.70;;;1.23;;
59504;SDS011;45321;53.200;5.814;2022-07-03T14:03:20;2.40;;;0.82;;
59504;SDS011;45321;53.200;5.814;2022-07-03T14:05:49;2.53;;;1.10;;
59504;SDS011;45321;53.200;5.814;2022-07-03T14:08:19;2.80;;;1.17;;
59504;SDS011;45321;53.200;5.814;2022-07-03T14:10:45;3.00;;;1.60;;
59504;SDS011;45321;53.200;5.814;2022-07-03T14:13:11;2.65;;;1.40;;
59504;SDS011;45321;53.200;5.814;2022-07-03T14:15:38;2.33;;;1.00;;
59504;SDS011;45321;53.200;5.814;2022-07-03T14:18:03;4.13;;;1.58;;
59504;SDS011;45321;53.200;5.814;2022-07-03T14:20:29;3.72;;;1.33;;
59504;SDS011;45321;53.200;5.814;2022-07-03T14:22:55;2.35;;;1.08;;
59504;SDS011;45321;53.200;5.814;2022-07-03T14:25:21;2.95;;;1.55;;
59504;SDS011;45321;53.200;5.814;2022-07-03T14:27:47;3.55;;;1.95;;
59504;SDS011;45321;53.200;5.814;2022-07-03T14:30:34;5.50;;;2.35;;
59504;SDS011;45321;53.200;5.814;2022-07-03T14:33:18;4.13;;;1.42;;
59504;SDS011;45321;53.200;5.814;2022-07-03T14:35:44;2.20;;;0.98;;
59504;SDS011;45321;53.200;5.814;2022-07-03T14:38:10;1.95;;;0.70;;
59504;SDS011;45321;53.200;5.814;2022-07-03T14:40:36;3.55;;;0.93;;
59504;SDS011;45321;53.200;5.814;2022-07-03T14:43:02;2.35;;;0.95;;
59504;SDS011;45321;53.200;5.814;2022-07-03T14:45:27;3.47;;;1.10;;
59504;SDS011;45321;53.200;5.814;2022-07-03T14:47:53;3.33;;;0.70;;
59504;SDS011;45321;53.200;5.814;2022-07-03T14:50:19;2.72;;;1.08;;
59504;SDS011;45321;53.200;5.814;2022-07-03T14:52:45;2.58;;;0.95;;
59504;SDS011;45321;53.200;5.814;2022-07-03T14:55:10;3.65;;;0.90;;
59504;SDS011;45321;53.200;5.814;2022-07-03T14:57:42;3.03;;;0.80;;
59504;SDS011;45321;53.200;5.814;2022-07-03T15:00:12;3.72;;;0.95;;
59504;SDS011;45321;53.200;5.814;2022-07-03T15:02:43;2.53;;;0.80;;
59504;SDS011;45321;53.200;5.814;2022-07-03T15:05:27;6.18;;;1.38;;
59504;SDS011;45321;53.200;5.814;2022-07-03T15:10:46;6.03;;;1.27;;
59504;SDS011;45321;53.200;5.814;2022-07-03T15:13:11;2.28;;;0.85;;
59504;SDS011;45321;53.200;5.814;2022-07-03T15:15:39;1.88;;;0.55;;
59504;SDS011;45321;53.200;5.814;2022-07-03T15:18:07;3.97;;;1.05;;
59504;SDS011;45321;53.200;5.814;2022-07-03T15:20:35;6.82;;;1.33;;
59504;SDS011;45321;53.200;5.814;2022-07-03T15:23:03;4.43;;;1.40;;
59504;SDS011;45321;53.200;5.814;2022-07-03T15:25:31;5.68;;;1.20;;
59504;SDS011;45321;53.200;5.814;2022-07-03T15:27:59;3.38;;;0.90;;
59504;SDS011;45321;53.200;5.814;2022-07-03T15:30:25;4.28;;;1.45;;
59504;SDS011;45321;53.200;5.814;2022-07-03T15:32:54;3.97;;;1.20;;
59504;SDS011;45321;53.200;5.814;2022-07-03T15:35:24;8.48;;;2.95;;
59504;SDS011;45321;53.200;5.814;2022-07-03T15:46:23;4.57;;;1.10;;
59504;SDS011;45321;53.200;5.814;2022-07-03T15:57:11;3.88;;;1.55;;
59504;SDS011;45321;53.200;5.814;2022-07-03T15:59:49;7.65;;;1.55;;
59504;SDS011;45321;53.200;5.814;2022-07-03T16:02:46;2.67;;;1.60;;
59504;SDS011;45321;53.200;5.814;2022-07-03T16:05:18;3.60;;;1.50;;
59504;SDS011;45321;53.200;5.814;2022-07-03T16:07:51;4.95;;;1.50;;
59504;SDS011;45321;53.200;5.814;2022-07-03T16:10:18;3.90;;;1.40;;
59504;SDS011;45321;53.200;5.814;2022-07-03T16:12:45;5.38;;;1.63;;
59504;SDS011;45321;53.200;5.814;2022-07-03T16:15:13;3.95;;;1.50;;
59504;SDS011;45321;53.200;5.814;2022-07-03T16:17:40;5.43;;;1.10;;
59504;SDS011;45321;53.200;5.814;2022-07-03T16:20:06;2.38;;;1.30;;
59504;SDS011;45321;53.200;5.814;2022-07-03T16:22:34;4.28;;;1.48;;
59504;SDS011;45321;53.200;5.814;2022-07-03T16:25:04;3.88;;;1.33;;
59504;SDS011;45321;53.200;5.814;2022-07-03T16:27:31;5.40;;;1.52;;
59504;SDS011;45321;53.200;5.814;2022-07-03T16:30:00;3.13;;;1.40;;
59504;SDS011;45321;53.200;5.814;2022-07-03T16:32:28;3.22;;;1.02;;
59504;SDS011;45321;53.200;5.814;2022-07-03T16:35:24;2.95;;;1.08;;
59504;SDS011;45321;53.200;5.814;2022-07-03T16:38:00;3.58;;;0.95;;
59504;SDS011;45321;53.200;5.814;2022-07-03T16:40:30;5.72;;;1.70;;
59504;SDS011;45321;53.200;5.814;2022-07-03T16:43:00;3.88;;;1.05;;
59504;SDS011;45321;53.200;5.814;2022-07-03T16:45:31;6.13;;;1.50;;
59504;SDS011;45321;53.200;5.814;2022-07-03T16:48:00;3.28;;;1.05;;
59504;SDS011;45321;53.200;5.814;2022-07-03T16:50:55;4.87;;;1.43;;
59504;SDS011;45321;53.200;5.814;2022-07-03T16:53:23;1.75;;;0.90;;
59504;SDS011;45321;53.200;5.814;2022-07-03T16:55:49;5.57;;;1.10;;
59504;SDS011;45321;53.200;5.814;2022-07-03T16:58:15;3.10;;;1.23;;
59504;SDS011;45321;53.200;5.814;2022-07-03T17:00:47;4.60;;;1.35;;